Time;durP1;ratioP1;P1;durP2;ratioP2;P2;SDS_P1;SDS_P2;PMS_P1;PMS_P2;Temp;Humidity;BMP_temperature;BMP_pressure;BME280_temperature;BME280_humidity;BME280_pressure;Samples;Min_cycle;Max_cycle;Signal;HPM_P1;HPM_P2
2023/04/01 00:01:32;;;;;;;9.13;1.60;;;11.00;99.90;;;;;;7284433;19;20263;-76
2023/04/01 00:03:58;;;;;;;13.33;1.90;;;11.10;99.90;;;;;;7287272;19;20603;-76
2023/04/01 00:06:24;;;;;;;11.23;1.80;;;11.00;99.90;;;;;;7283650;19;20197;-76
2023/04/01 00:08:50;;;;;;;10.30;1.90;;;11.00;99.90;;;;;;7308389;19;20196;-77
2023/04/01 00:11:16;;;;;;;16.90;2.07;;;11.00;99.90;;;;;;7285439;19;20189;-77
2023/04/01 00:13:42;;;;;;;10.60;1.60;;;11.00;99.90;;;;;;7284050;19;20185;-76
2023/04/01 00:16:08;;;;;;;15.23;1.97;;;11.00;99.90;;;;;;7284562;19;20262;-76
2023/04/01 00:18:34;;;;;;;15.17;2.20;;;11.10;99.90;;;;;;7286555;19;20197;-77
2023/04/01 00:21:00;;;;;;;8.73;1.47;;;11.10;99.90;;;;;;7284501;19;20259;-76
2023/04/01 00:23:26;;;;;;;9.30;1.43;;;11.10;99.90;;;;;;7285316;19;20196;-75
2023/04/01 00:25:51;;;;;;;11.60;1.60;;;11.10;99.90;;;;;;7298369;19;20193;-76
2023/04/01 00:28:19;;;;;;;7.73;1.17;;;11.10;99.90;;;;;;7300836;19;20259;-77
2023/04/01 00:30:45;;;;;;;9.17;1.47;;;11.10;99.90;;;;;;7285437;19;20691;-76
2023/04/01 00:33:11;;;;;;;10.53;1.47;;;11.00;99.90;;;;;;7283695;19;20199;-76
2023/04/01 00:35:37;;;;;;;7.90;1.30;;;11.00;99.90;;;;;;7284173;19;20539;-77
2023/04/01 00:38:03;;;;;;;7.30;1.33;;;11.00;99.90;;;;;;7285234;19;20193;-76
2023/04/01 00:40:32;;;;;;;8.33;1.23;;;11.10;99.90;;;;;;7284439;19;20257;-76
2023/04/01 00:42:58;;;;;;;6.57;1.40;;;11.00;99.90;;;;;;7283314;19;20204;-77
2023/04/01 00:45:32;;;;;;;7.40;1.40;;;11.00;99.90;;;;;;7283873;19;20217;-76
2023/04/01 00:48:04;;;;;;;7.60;1.40;;;11.00;99.90;;;;;;7284089;19;20176;-76
2023/04/01 00:50:32;;;;;;;5.80;1.20;;;11.00;99.90;;;;;;7283709;19;20192;-76
2023/04/01 00:53:00;;;;;;;4.57;1.40;;;11.10;99.90;;;;;;7282749;19;20185;-76
2023/04/01 00:55:28;;;;;;;7.20;1.63;;;11.10;99.90;;;;;;7281994;19;20195;-76
2023/04/01 00:57:56;;;;;;;8.70;1.70;;;11.20;99.90;;;;;;7282637;19;20546;-76
2023/04/01 01:00:22;;;;;;;7.90;1.67;;;11.10;99.90;;;;;;7296476;19;20193;-75
2023/04/01 01:02:50;;;;;;;5.57;1.50;;;11.20;99.90;;;;;;7313530;19;20192;-76
2023/04/01 01:05:19;;;;;;;9.07;1.97;;;11.20;99.90;;;;;;7289915;19;20276;-76
2023/04/01 01:08:04;;;;;;;6.33;2.10;;;11.30;99.90;;;;;;7290252;19;20219;-77
2023/04/01 01:10:39;;;;;;;8.47;2.00;;;11.30;99.90;;;;;;7187289;19;2006215;-76
2023/04/01 01:13:14;;;;;;;11.00;2.10;;;11.20;99.90;;;;;;7280210;19;20191;-77
2023/04/01 01:16:19;;;;;;;7.73;2.10;;;11.20;99.90;;;;;;7272200;19;20211;-78
2023/04/01 01:18:56;;;;;;;10.63;2.40;;;11.10;99.90;;;;;;7187267;19;2004336;-76
2023/04/01 01:21:52;;;;;;;7.27;2.40;;;11.00;99.90;;;;;;7274689;19;20679;-76
2023/04/01 01:24:51;;;;;;;5.07;1.80;;;11.10;99.90;;;;;;7291862;19;20715;-76
2023/04/01 01:27:19;;;;;;;7.80;2.17;;;11.00;99.90;;;;;;7186412;19;2005949;-76
2023/04/01 01:29:45;;;;;;;8.50;2.40;;;11.00;99.90;;;;;;7275388;19;20278;-76
2023/04/01 01:32:16;;;;;;;10.97;2.30;;;11.10;99.90;;;;;;7286338;19;20605;-76
2023/04/01 01:35:09;;;;;;;6.43;2.10;;;11.10;99.90;;;;;;7290449;19;20640;-76
2023/04/01 01:37:38;;;;;;;7.03;1.93;;;11.00;99.90;;;;;;7186806;19;2006307;-76
2023/04/01 01:40:07;;;;;;;7.30;2.00;;;11.00;99.90;;;;;;7288655;19;20195;-76
2023/04/01 01:42:39;;;;;;;6.63;2.00;;;11.00;99.90;;;;;;7287259;19;20192;-76
2023/04/01 01:45:07;;;;;;;5.93;1.60;;;11.00;99.90;;;;;;7288943;19;20210;-76
2023/04/01 01:47:35;;;;;;;6.63;1.70;;;11.00;99.90;;;;;;7280574;19;20676;-78
2023/04/01 01:50:03;;;;;;;4.00;1.40;;;11.00;99.90;;;;;;7290985;19;20181;-76
2023/04/01 01:52:29;;;;;;;4.67;1.17;;;11.10;99.90;;;;;;7287752;19;20267;-76
2023/04/01 01:54:57;;;;;;;4.03;1.30;;;11.10;99.90;;;;;;7285897;19;20558;-77
2023/04/01 01:57:35;;;;;;;4.13;1.60;;;11.10;99.90;;;;;;7284871;19;20187;-76
2023/04/01 02:00:13;;;;;;;5.90;1.80;;;11.10;99.90;;;;;;7284578;19;20214;-76
2023/04/01 02:02:45;;;;;;;4.37;2.07;;;11.10;99.90;;;;;;7273134;19;20210;-76
2023/04/01 02:05:18;;;;;;;6.00;2.20;;;11.10;99.90;;;;;;7283222;19;20632;-77
2023/04/01 02:07:51;;;;;;;7.73;2.30;;;11.10;99.90;;;;;;7284667;19;20188;-77
2023/04/01 02:10:19;;;;;;;8.97;3.20;;;11.10;99.90;;;;;;7285673;19;20181;-77
2023/04/01 02:12:47;;;;;;;8.93;3.20;;;11.10;99.90;;;;;;7282204;19;20284;-77
2023/04/01 02:15:15;;;;;;;6.50;3.20;;;11.10;99.90;;;;;;7285338;19;20200;-77
2023/04/01 02:17:45;;;;;;;11.90;4.37;;;11.10;99.90;;;;;;7285304;19;20208;-77
2023/04/01 02:20:20;;;;;;;13.60;4.53;;;11.10;99.90;;;;;;7283243;19;20196;-77
2023/04/01 02:22:59;;;;;;;11.97;4.93;;;11.20;99.90;;;;;;7286867;19;20209;-77
2023/04/01 02:25:30;;;;;;;13.03;5.77;;;11.20;99.90;;;;;;7248719;19;20667;-76
2023/04/01 02:27:58;;;;;;;9.43;4.37;;;11.20;99.90;;;;;;7283927;19;20601;-76
2023/04/01 02:30:26;;;;;;;14.43;4.50;;;11.10;99.90;;;;;;7300918;19;20196;-76
2023/04/01 02:32:53;;;;;;;11.93;4.40;;;10.90;99.90;;;;;;7291878;19;20202;-76
2023/04/01 02:35:19;;;;;;;12.67;4.47;;;10.90;99.90;;;;;;7307867;19;20189;-77
2023/04/01 02:37:48;;;;;;;11.20;3.97;;;10.90;99.90;;;;;;7284319;19;20314;-76
2023/04/01 02:40:15;;;;;;;9.80;3.80;;;10.90;99.90;;;;;;7268976;19;20236;-77
2023/04/01 02:42:41;;;;;;;16.53;4.73;;;10.90;99.90;;;;;;7284184;19;21163;-77
2023/04/01 02:45:07;;;;;;;10.07;4.13;;;10.90;99.90;;;;;;7279839;19;20189;-76
2023/04/01 02:47:33;;;;;;;9.50;3.90;;;10.90;99.90;;;;;;7279604;19;20208;-77
2023/04/01 02:49:59;;;;;;;13.70;4.50;;;10.90;99.90;;;;;;7286497;19;20197;-76
2023/04/01 02:52:29;;;;;;;11.45;4.77;;;10.90;99.90;;;;;;7253965;19;2842889;-76
2023/04/01 02:54:59;;;;;;;13.00;5.17;;;10.90;99.90;;;;;;7287425;19;20192;-77
2023/04/01 02:57:25;;;;;;;11.87;5.63;;;10.90;99.90;;;;;;7285637;19;20196;-76
2023/04/01 02:59:51;;;;;;;16.63;7.23;;;11.00;99.90;;;;;;7305621;19;20203;-79
2023/04/01 03:02:17;;;;;;;15.50;7.27;;;11.00;99.90;;;;;;7285422;19;20299;-76
2023/04/01 03:04:43;;;;;;;18.17;7.60;;;11.10;99.90;;;;;;7284930;19;20208;-76
2023/04/01 03:07:10;;;;;;;21.87;7.73;;;11.10;99.90;;;;;;7282842;19;20204;-76
2023/04/01 03:09:36;;;;;;;15.43;7.17;;;11.10;99.90;;;;;;7287826;19;20207;-76
2023/04/01 03:12:03;;;;;;;20.10;7.63;;;10.90;99.90;;;;;;7283262;19;20212;-77
2023/04/01 03:14:30;;;;;;;23.10;7.90;;;10.80;99.90;;;;;;7286251;19;20207;-77
2023/04/01 03:16:56;;;;;;;18.80;8.23;;;10.80;99.90;;;;;;7285527;19;20654;-76
2023/04/01 03:19:22;;;;;;;19.47;8.00;;;10.70;99.90;;;;;;7300485;19;20229;-76
2023/04/01 03:21:47;;;;;;;17.43;7.20;;;10.70;99.90;;;;;;7300998;19;20206;-77
2023/04/01 03:24:13;;;;;;;17.30;7.50;;;10.70;99.90;;;;;;7284498;19;20200;-77
2023/04/01 03:26:39;;;;;;;17.40;7.03;;;10.70;99.90;;;;;;7285143;19;20666;-77
2023/04/01 03:29:05;;;;;;;16.77;6.47;;;10.70;99.90;;;;;;7286810;19;20224;-77
2023/04/01 03:31:31;;;;;;;19.63;6.50;;;10.60;99.90;;;;;;7284462;19;20197;-76
2023/04/01 03:33:57;;;;;;;21.97;7.07;;;10.70;99.90;;;;;;7286652;19;20195;-75
2023/04/01 03:36:23;;;;;;;15.30;6.87;;;10.60;99.90;;;;;;7295634;19;20206;-76
2023/04/01 03:38:48;;;;;;;15.80;7.17;;;10.60;99.90;;;;;;7263718;19;20308;-76
2023/04/01 03:41:21;;;;;;;18.00;7.07;;;10.60;99.90;;;;;;7282989;19;20661;-76
2023/04/01 03:43:47;;;;;;;17.63;7.80;;;10.60;99.90;;;;;;7287600;19;20189;-76
2023/04/01 03:46:18;;;;;;;15.60;6.93;;;10.60;99.90;;;;;;7284054;19;20592;-76
2023/04/01 03:48:43;;;;;;;19.00;7.50;;;10.70;99.90;;;;;;7283681;19;20902;-76
2023/04/01 03:51:09;;;;;;;22.20;8.00;;;10.70;99.90;;;;;;7279650;19;20188;-76
2023/04/01 03:53:35;;;;;;;25.70;8.47;;;10.70;99.90;;;;;;7283079;19;20200;-76
2023/04/01 03:56:06;;;;;;;18.47;8.23;;;10.80;99.90;;;;;;7282600;19;20202;-76
2023/04/01 03:58:33;;;;;;;19.77;9.10;;;10.80;99.90;;;;;;7283629;19;20653;-77
2023/04/01 04:01:01;;;;;;;22.63;9.40;;;10.80;99.90;;;;;;7283311;19;20630;-76
2023/04/01 04:03:27;;;;;;;18.97;8.83;;;10.80;99.90;;;;;;7283261;19;20717;-76
2023/04/01 04:05:55;;;;;;;21.63;9.20;;;10.80;99.90;;;;;;7266089;19;20195;-76
2023/04/01 04:08:21;;;;;;;22.50;9.33;;;10.80;99.90;;;;;;7305646;19;20682;-76
2023/04/01 04:10:54;;;;;;;19.10;8.87;;;10.80;99.90;;;;;;7282749;19;20202;-77
2023/04/01 04:13:19;;;;;;;20.63;8.20;;;10.90;99.90;;;;;;7282852;19;20291;-77
2023/04/01 04:15:50;;;;;;;17.47;8.37;;;10.90;99.90;;;;;;7283553;19;20286;-77
2023/04/01 04:18:15;;;;;;;19.67;8.63;;;10.90;99.90;;;;;;7283414;19;20212;-76
2023/04/01 04:20:50;;;;;;;18.87;8.33;;;10.90;99.90;;;;;;7283870;19;20254;-76
2023/04/01 04:23:16;;;;;;;21.73;9.17;;;10.80;99.90;;;;;;7284180;19;20218;-77
2023/04/01 04:25:41;;;;;;;20.30;9.33;;;10.80;99.90;;;;;;7283041;19;20198;-77
2023/04/01 04:28:07;;;;;;;19.47;9.23;;;10.90;99.90;;;;;;7283316;19;20259;-77
2023/04/01 04:30:34;;;;;;;19.27;9.60;;;10.80;99.90;;;;;;7283648;19;20208;-76
2023/04/01 04:33:00;;;;;;;17.30;9.27;;;10.90;99.90;;;;;;7281617;19;20709;-76
2023/04/01 04:35:26;;;;;;;18.63;9.97;;;10.90;99.90;;;;;;7304450;19;20191;-76
2023/04/01 04:37:51;;;;;;;20.33;9.60;;;10.90;99.90;;;;;;7298808;19;20189;-76
2023/04/01 04:40:17;;;;;;;16.67;8.37;;;11.00;99.90;;;;;;7286781;19;20194;-77
2023/04/01 04:42:43;;;;;;;17.70;8.37;;;11.00;99.90;;;;;;7301285;19;20202;-76
2023/04/01 04:45:12;;;;;;;15.33;7.93;;;11.00;99.90;;;;;;7285170;19;20996;-77
2023/04/01 04:47:43;;;;;;;16.47;7.90;;;11.00;99.90;;;;;;7279136;19;20208;-77
2023/04/01 04:50:09;;;;;;;14.53;7.70;;;11.00;99.90;;;;;;7267200;19;20223;-77
2023/04/01 04:52:36;;;;;;;14.83;7.53;;;11.00;99.90;;;;;;7281312;19;20191;-76
2023/04/01 04:55:03;;;;;;;14.87;7.40;;;11.00;99.90;;;;;;7283310;19;20205;-77
2023/04/01 04:57:28;;;;;;;14.87;7.70;;;10.90;99.90;;;;;;7279191;19;20212;-76
2023/04/01 04:59:55;;;;;;;17.27;8.00;;;11.00;99.90;;;;;;7284002;19;20191;-77
2023/04/01 05:02:36;;;;;;;13.87;6.83;;;11.00;99.90;;;;;;7282994;19;20530;-77
2023/04/01 05:05:02;;;;;;;14.67;7.37;;;10.90;99.90;;;;;;7279182;19;20678;-78
2023/04/01 05:07:28;;;;;;;12.40;6.67;;;10.80;99.90;;;;;;7279606;19;20233;-76
2023/04/01 05:09:53;;;;;;;13.33;6.83;;;10.80;99.90;;;;;;7287453;19;20185;-76
2023/04/01 05:12:19;;;;;;;15.83;6.43;;;10.80;99.90;;;;;;7302203;19;20214;-76
2023/04/01 05:14:57;;;;;;;12.47;6.00;;;10.90;99.90;;;;;;7261028;19;20673;-76
2023/04/01 05:17:23;;;;;;;12.27;6.00;;;10.80;99.90;;;;;;7293149;19;20199;-75
2023/04/01 05:19:48;;;;;;;15.03;7.03;;;10.80;99.90;;;;;;7295769;19;20195;-76
2023/04/01 05:22:14;;;;;;;16.33;6.87;;;10.80;99.90;;;;;;7281410;19;20222;-76
2023/04/01 05:24:40;;;;;;;14.07;7.23;;;10.90;99.90;;;;;;7279707;19;20202;-76
2023/04/01 05:27:06;;;;;;;14.80;7.33;;;10.90;99.90;;;;;;7279944;19;20592;-76
2023/04/01 05:29:34;;;;;;;13.90;6.73;;;10.80;99.90;;;;;;7280813;19;20760;-77
2023/04/01 05:32:04;;;;;;;14.13;6.47;;;10.80;99.90;;;;;;7301248;19;20189;-77
2023/04/01 05:34:30;;;;;;;14.20;5.47;;;10.70;99.90;;;;;;7280128;19;20192;-76
2023/04/01 05:36:56;;;;;;;14.70;5.57;;;10.50;99.90;;;;;;7280077;19;20184;-76
2023/04/01 05:39:23;;;;;;;12.03;5.43;;;10.50;99.90;;;;;;7303450;19;20190;-76
2023/04/01 05:41:49;;;;;;;11.57;5.23;;;10.50;99.90;;;;;;7280501;19;20198;-76
2023/04/01 05:44:15;;;;;;;13.90;6.00;;;10.50;99.90;;;;;;7278478;19;20194;-77
2023/04/01 05:46:41;;;;;;;12.63;5.70;;;10.50;99.90;;;;;;7265626;19;20258;-76
2023/04/01 05:49:25;;;;;;;10.77;5.63;;;10.60;99.90;;;;;;7266631;19;20185;-76
2023/04/01 05:51:51;;;;;;;14.50;6.63;;;10.60;99.90;;;;;;7309170;19;20210;-77
2023/04/01 05:54:19;;;;;;;14.37;6.93;;;10.70;99.90;;;;;;7287004;19;20200;-77
2023/04/01 05:56:45;;;;;;;16.07;7.80;;;10.60;99.90;;;;;;7285962;19;20200;-77
2023/04/01 05:59:12;;;;;;;18.83;7.97;;;10.70;99.90;;;;;;7286858;19;20195;-77
2023/04/01 06:01:38;;;;;;;18.70;9.03;;;10.70;99.90;;;;;;7286972;19;20634;-77
2023/04/01 06:04:04;;;;;;;19.10;9.30;;;10.60;99.90;;;;;;7288234;19;20203;-76
2023/04/01 06:06:34;;;;;;;20.53;9.13;;;10.60;99.90;;;;;;7286363;19;20194;-76
2023/04/01 06:09:18;;;;;;;16.07;7.97;;;10.60;99.90;;;;;;7286634;19;20181;-77
2023/04/01 06:12:07;;;;;;;22.07;8.60;;;10.60;99.90;;;;;;7285409;19;20262;-75
2023/04/01 06:14:54;;;;;;;18.77;9.23;;;10.70;99.90;;;;;;7280591;19;20716;-78
2023/04/01 06:17:26;;;;;;;22.57;9.33;;;10.60;99.90;;;;;;7288539;19;20191;-77
2023/04/01 06:20:27;;;;;;;20.67;9.50;;;10.60;99.90;;;;;;7288919;19;20774;-77
2023/04/01 06:23:16;;;;;;;18.50;9.30;;;10.60;99.90;;;;;;7186273;19;2004367;-77
2023/04/01 06:26:07;;;;;;;18.13;8.83;;;10.70;99.90;;;;;;7181751;19;2004776;-77
2023/04/01 06:28:58;;;;;;;16.70;8.57;;;10.70;99.90;;;;;;7184570;19;2004645;-76
2023/04/01 06:31:49;;;;;;;18.90;8.03;;;10.70;99.90;;;;;;7270328;19;20199;-76
2023/04/01 06:34:21;;;;;;;19.23;7.70;;;10.70;99.90;;;;;;7286798;19;20737;-77
2023/04/01 06:37:18;;;;;;;16.77;8.10;;;10.70;99.90;;;;;;7282149;19;20191;-77
2023/04/01 06:40:35;;;;;;;18.57;7.73;;;10.70;99.90;;;;;;7183845;19;2006321;-79
2023/04/01 06:43:40;;;;;;;15.23;7.83;;;10.70;99.90;;;;;;7081104;19;2004539;-77
2023/04/01 06:46:41;;;;;;;15.40;7.30;;;10.80;99.90;;;;;;7081077;19;2004982;-76
2023/04/01 06:49:51;;;;;;;15.03;7.17;;;10.70;99.90;;;;;;7248615;19;2004655;-78
2023/04/01 06:52:42;;;;;;;14.50;6.90;;;10.80;99.90;;;;;;7182031;19;2004702;-78
2023/04/01 06:55:45;;;;;;;14.10;7.37;;;10.90;99.90;;;;;;7183518;19;2004667;-78
2023/04/01 06:58:41;;;;;;;14.93;6.47;;;11.00;99.90;;;;;;7268293;19;20246;-77
2023/04/01 07:01:18;;;;;;;13.10;6.27;;;10.90;99.90;;;;;;7285466;19;20942;-78
2023/04/01 07:04:14;;;;;;;14.93;5.87;;;10.90;99.90;;;;;;7287269;19;20185;-78
2023/04/01 07:06:47;;;;;;;8.87;5.00;;;10.90;99.90;;;;;;7181402;19;2004570;-78
2023/04/01 07:09:18;;;;;;;11.53;5.30;;;10.80;99.90;;;;;;7286930;19;20224;-78
2023/04/01 07:12:15;;;;;;;12.73;5.23;;;11.00;99.90;;;;;;7183824;19;2004564;-78
2023/04/01 07:15:30;;;;;;;14.30;6.37;;;11.00;99.90;;;;;;7181548;19;2004667;-78
2023/04/01 07:18:02;;;;;;;13.20;6.23;;;11.10;99.90;;;;;;7265024;19;20193;-78
2023/04/01 07:20:32;;;;;;;11.67;5.77;;;11.10;99.90;;;;;;7285327;19;20262;-78
2023/04/01 07:23:02;;;;;;;10.17;6.00;;;11.00;99.90;;;;;;7286265;19;20194;-78
2023/04/01 07:25:45;;;;;;;11.33;6.20;;;11.00;99.90;;;;;;7286512;19;20191;-81
2023/04/01 07:28:33;;;;;;;12.27;6.30;;;10.90;99.90;;;;;;7188003;19;2004589;-80
2023/04/01 07:31:30;;;;;;;10.47;5.37;;;11.10;99.90;;;;;;7273501;19;20181;-79
2023/04/01 07:34:10;;;;;;;11.03;4.57;;;11.20;99.90;;;;;;7294952;19;20605;-79
2023/04/01 07:36:44;;;;;;;9.10;3.97;;;11.20;99.90;;;;;;7276151;19;20224;-79
2023/04/01 07:39:27;;;;;;;8.50;3.80;;;11.10;99.90;;;;;;7297346;19;20202;-79
2023/04/01 07:42:29;;;;;;;5.90;3.03;;;11.20;99.90;;;;;;7187874;19;2004604;-79
2023/04/01 07:45:02;;;;;;;6.50;3.07;;;11.30;99.90;;;;;;7263526;19;20272;-77
2023/04/01 07:47:52;;;;;;;6.73;3.23;;;11.40;99.90;;;;;;7281540;19;20189;-80
2023/04/01 07:50:35;;;;;;;8.13;3.23;;;11.30;99.90;;;;;;7285404;19;20198;-81
2023/04/01 07:53:46;;;;;;;5.83;2.87;;;11.30;99.90;;;;;;7179392;19;2004574;-79
2023/04/01 07:56:19;;;;;;;5.80;3.00;;;11.40;99.90;;;;;;7183224;19;2004377;-79
2023/04/01 07:58:57;;;;;;;5.07;2.90;;;11.40;99.90;;;;;;7282404;19;20205;-80
2023/04/01 08:01:48;;;;;;;6.50;3.37;;;11.50;99.90;;;;;;7182705;19;2004394;-80
2023/04/01 08:05:05;;;;;;;7.80;3.97;;;11.50;99.90;;;;;;7285022;19;20316;-80
2023/04/01 08:07:50;;;;;;;7.67;3.90;;;11.50;99.90;;;;;;7077265;19;2004994;-82
2023/04/01 08:10:48;;;;;;;6.13;2.70;;;11.40;99.90;;;;;;7177937;19;2004641;-80
2023/04/01 08:13:40;;;;;;;5.90;2.97;;;11.30;99.90;;;;;;7180745;19;2004413;-80
2023/04/01 08:16:48;;;;;;;5.47;2.40;;;11.40;99.90;;;;;;7263532;19;20268;-79
2023/04/01 08:19:32;;;;;;;4.13;1.90;;;11.40;99.90;;;;;;7282596;19;20193;-79
2023/04/01 08:22:04;;;;;;;3.73;1.80;;;11.40;99.90;;;;;;7181782;19;2004562;-78
2023/04/01 08:24:38;;;;;;;3.00;1.60;;;11.50;99.90;;;;;;7285488;19;20187;-79
2023/04/01 08:27:12;;;;;;;4.83;1.80;;;11.50;99.90;;;;;;7285226;19;20220;-84
2023/04/01 08:29:49;;;;;;;3.73;1.73;;;11.50;99.90;;;;;;7283647;19;20189;-79
2023/04/01 08:32:27;;;;;;;2.80;1.60;;;11.60;99.90;;;;;;7283248;19;20219;-81
2023/04/01 08:35:28;;;;;;;2.50;1.37;;;11.80;99.90;;;;;;7275276;19;20188;-80
2023/04/01 08:38:00;;;;;;;4.13;1.40;;;11.80;99.90;;;;;;7264538;19;20195;-80
2023/04/01 08:40:57;;;;;;;2.40;0.90;;;11.90;99.90;;;;;;7284555;19;20195;-80
2023/04/01 08:43:40;;;;;;;2.03;1.00;;;11.80;99.90;;;;;;7261273;19;20641;-80
2023/04/01 08:46:35;;;;;;;3.17;0.77;;;11.90;99.90;;;;;;7284076;19;20308;-81
2023/04/01 08:49:06;;;;;;;2.70;0.90;;;11.80;99.90;;;;;;7181641;19;2004696;-80
2023/04/01 08:51:43;;;;;;;1.67;0.70;;;11.50;99.90;;;;;;7284030;19;20199;-79
2023/04/01 08:54:11;;;;;;;2.00;0.77;;;11.30;99.90;;;;;;7282364;19;20559;-80
2023/04/01 08:56:50;;;;;;;2.70;1.00;;;11.40;99.90;;;;;;7285143;19;20612;-79
2023/04/01 08:59:38;;;;;;;2.30;1.10;;;11.40;99.90;;;;;;7284807;19;20290;-80
2023/04/01 09:02:42;;;;;;;2.27;1.00;;;11.50;99.90;;;;;;7181381;19;2004815;-79
2023/04/01 09:05:43;;;;;;;3.07;1.00;;;11.70;99.90;;;;;;7181629;19;2005968;-79
2023/04/01 09:08:15;;;;;;;3.23;1.30;;;11.80;99.90;;;;;;7182097;19;2004470;-79
2023/04/01 09:10:41;;;;;;;1.73;1.30;;;11.90;99.90;;;;;;7282653;19;20695;-80
2023/04/01 09:13:43;;;;;;;4.23;1.30;;;11.90;99.90;;;;;;7262175;19;20288;-79
2023/04/01 09:16:39;;;;;;;2.27;1.30;;;11.80;99.90;;;;;;7285606;19;20197;-80
2023/04/01 09:19:16;;;;;;;5.20;1.53;;;11.60;99.90;;;;;;7184378;19;2004457;-80
2023/04/01 09:21:48;;;;;;;4.00;1.80;;;11.40;99.90;;;;;;7290775;19;20193;-80
2023/04/01 09:24:39;;;;;;;2.37;1.20;;;11.60;99.90;;;;;;7295557;19;20594;-80
2023/04/01 09:27:22;;;;;;;2.73;1.20;;;11.90;99.90;;;;;;7194466;19;2006537;-79
2023/04/01 09:30:35;;;;;;;2.10;1.10;;;12.10;99.90;;;;;;7291287;19;20209;-79
2023/04/01 09:33:38;;;;;;;2.63;1.30;;;12.10;99.90;;;;;;7084956;19;2004721;-80
2023/04/01 09:36:21;;;;;;;2.53;1.20;;;12.30;99.90;;;;;;7185808;19;2004596;-80
2023/04/01 09:39:26;;;;;;;3.00;1.30;;;12.50;99.90;;;;;;7290054;19;20193;-80
2023/04/01 09:42:15;;;;;;;3.10;1.30;;;12.60;99.90;;;;;;7185826;19;2004378;-78
2023/04/01 09:45:05;;;;;;;3.80;1.50;;;12.80;99.90;;;;;;7290510;19;20204;-79
2023/04/01 09:47:48;;;;;;;3.43;1.40;;;12.90;99.90;;;;;;7186742;19;2005071;-79
2023/04/01 09:50:36;;;;;;;3.07;1.63;;;12.90;99.90;;;;;;7288704;19;20534;-80
2023/04/01 09:53:21;;;;;;;3.83;1.57;;;12.90;99.90;;;;;;7185986;19;2004620;-80
2023/04/01 09:56:09;;;;;;;3.67;1.50;;;12.90;99.90;;;;;;7290800;19;20185;-80
2023/04/01 09:59:32;;;;;;;3.60;1.50;;;13.00;99.90;;;;;;7186560;19;2004484;-79
2023/04/01 10:02:34;;;;;;;2.97;1.60;;;13.10;99.90;;;;;;7085017;19;2004681;-80
2023/04/01 10:05:20;;;;;;;3.07;1.33;;;13.10;99.90;;;;;;7185203;19;2004843;-80
2023/04/01 10:07:54;;;;;;;3.30;1.40;;;12.80;99.90;;;;;;7288169;19;20264;-80
2023/04/01 10:11:04;;;;;;;2.53;1.20;;;12.90;99.90;;;;;;7290171;19;20224;-80
2023/04/01 10:13:49;;;;;;;3.33;1.10;;;13.00;99.90;;;;;;7082171;19;2004710;-80
2023/04/01 10:17:20;;;;;;;2.60;1.10;;;12.80;99.90;;;;;;7288452;19;20652;-77
2023/04/01 10:20:04;;;;;;;2.50;1.20;;;12.70;99.90;;;;;;7084099;19;2004392;-78
2023/04/01 10:22:48;;;;;;;1.43;1.00;;;12.80;99.90;;;;;;7185898;19;2004581;-78
2023/04/01 10:25:36;;;;;;;2.00;1.20;;;13.00;99.90;;;;;;7289224;19;20190;-78
2023/04/01 10:28:07;;;;;;;2.20;0.87;;;13.20;99.90;;;;;;7185687;19;2004744;-78
2023/04/01 10:31:11;;;;;;;1.80;0.93;;;13.30;99.90;;;;;;7183046;19;2004862;-78
2023/04/01 10:34:05;;;;;;;1.97;1.30;;;13.50;99.90;;;;;;7283374;19;20192;-80
2023/04/01 10:36:58;;;;;;;2.03;1.10;;;13.60;99.90;;;;;;7185036;19;2004413;-78
2023/04/01 10:39:52;;;;;;;2.43;1.20;;;13.40;99.90;;;;;;7184121;19;2004360;-77
2023/04/01 10:42:47;;;;;;;2.03;1.40;;;13.20;99.90;;;;;;7185669;19;2004871;-78
2023/04/01 10:45:40;;;;;;;2.73;1.30;;;12.90;99.90;;;;;;7185686;19;2004627;-77
2023/04/01 10:48:45;;;;;;;3.47;1.60;;;13.00;99.90;;;;;;7287794;19;20211;-78
2023/04/01 10:51:41;;;;;;;8.07;2.10;;;12.70;99.90;;;;;;7183648;19;2004813;-78
2023/04/01 10:54:30;;;;;;;4.23;2.00;;;12.80;99.90;;;;;;7184496;19;2004564;-78
2023/04/01 10:57:15;;;;;;;4.13;1.90;;;12.80;99.90;;;;;;7264936;19;20197;-78
2023/04/01 11:00:18;;;;;;;6.73;2.07;;;12.80;99.90;;;;;;7183399;19;2004812;-78
2023/04/01 11:03:08;;;;;;;3.60;1.73;;;12.80;99.90;;;;;;7184586;19;2004629;-81
2023/04/01 11:06:24;;;;;;;3.43;2.10;;;12.80;99.90;;;;;;7273510;19;20606;-77
2023/04/01 11:09:09;;;;;;;5.83;2.60;;;12.80;99.90;;;;;;7287794;19;20189;-78
2023/04/01 11:12:02;;;;;;;4.10;2.30;;;13.00;99.90;;;;;;7183893;19;2004816;-77
2023/04/01 11:14:54;;;;;;;3.20;1.83;;;13.30;99.90;;;;;;7183995;19;2004887;-78
2023/04/01 11:17:35;;;;;;;4.47;1.43;;;13.50;99.90;;;;;;7286245;19;20659;-78
2023/04/01 11:20:29;;;;;;;5.23;1.60;;;13.50;99.90;;;;;;7184104;19;2004774;-77
2023/04/01 11:23:19;;;;;;;2.80;1.00;;;13.00;99.90;;;;;;7264396;19;20189;-77
2023/04/01 11:25:56;;;;;;;4.43;1.47;;;12.60;99.90;;;;;;7286080;19;20198;-78
2023/04/01 11:28:40;;;;;;;1.60;1.00;;;12.60;99.90;;;;;;7184902;19;2004619;-79
2023/04/01 11:31:32;;;;;;;3.87;1.53;;;12.90;99.90;;;;;;7285368;19;20190;-78
2023/04/01 11:34:16;;;;;;;3.53;1.03;;;13.10;99.90;;;;;;7181487;19;2004809;-79
2023/04/01 11:37:12;;;;;;;1.80;0.87;;;13.30;99.90;;;;;;7286597;19;20181;-78
2023/04/01 11:40:18;;;;;;;2.50;0.70;;;13.20;99.90;;;;;;7183893;19;2004506;-78
2023/04/01 11:43:48;;;;;;;1.43;0.67;;;13.00;99.90;;;;;;7081044;19;2004909;-77
2023/04/01 11:46:26;;;;;;;2.03;0.70;;;13.10;99.90;;;;;;7180684;19;2004820;-77
2023/04/01 11:49:18;;;;;;;2.20;0.97;;;13.20;99.90;;;;;;7305936;19;20185;-78
2023/04/01 11:52:19;;;;;;;1.20;0.67;;;13.30;99.90;;;;;;7167870;19;2004468;-78
2023/04/01 11:55:06;;;;;;;0.90;0.63;;;13.30;99.90;;;;;;7284961;19;20186;-79
2023/04/01 11:57:58;;;;;;;1.50;0.77;;;13.50;99.90;;;;;;7182878;19;2005011;-78
2023/04/01 12:00:39;;;;;;;2.00;0.93;;;13.60;99.90;;;;;;7276437;19;20180;-78
2023/04/01 12:03:21;;;;;;;2.80;1.00;;;13.70;99.90;;;;;;7286539;19;20192;-79
2023/04/01 12:06:21;;;;;;;2.63;0.90;;;13.80;99.90;;;;;;7285052;19;20658;-79
2023/04/01 12:09:08;;;;;;;3.00;0.90;;;13.70;99.90;;;;;;7182296;19;2004329;-78
2023/04/01 12:12:00;;;;;;;2.80;0.90;;;13.50;99.90;;;;;;7183635;19;2005091;-79
2023/04/01 12:15:01;;;;;;;3.70;1.63;;;13.10;99.90;;;;;;7264253;19;20209;-78
2023/04/01 12:17:33;;;;;;;3.30;1.27;;;13.20;99.90;;;;;;7264443;19;20190;-78
2023/04/01 12:20:24;;;;;;;3.47;1.20;;;13.30;99.90;;;;;;7284210;19;20186;-78
2023/04/01 12:22:56;;;;;;;4.53;1.70;;;13.40;99.90;;;;;;7287286;19;20189;-80
2023/04/01 12:25:47;;;;;;;3.03;1.20;;;13.40;99.90;;;;;;7287510;19;20196;-79
2023/04/01 12:28:43;;;;;;;4.23;1.20;;;13.40;99.90;;;;;;7182350;19;2004799;-79
2023/04/01 12:31:39;;;;;;;4.63;1.70;;;13.10;99.90;;;;;;7182708;19;2005031;-78
2023/04/01 12:34:20;;;;;;;5.07;2.20;;;13.00;99.90;;;;;;7180976;19;2004538;-80
2023/04/01 12:36:57;;;;;;;4.30;2.07;;;12.90;99.90;;;;;;7284070;19;20659;-79
2023/04/01 12:39:50;;;;;;;2.50;1.70;;;12.80;99.90;;;;;;7284970;19;20177;-79
2023/04/01 12:42:31;;;;;;;3.90;2.13;;;12.70;99.90;;;;;;7183095;19;2004313;-79
2023/04/01 12:45:30;;;;;;;5.43;2.20;;;12.70;99.90;;;;;;7262551;19;20180;-79
2023/04/01 12:48:20;;;;;;;6.30;2.10;;;12.60;99.90;;;;;;7262480;19;20180;-77
2023/04/01 12:51:12;;;;;;;6.97;2.10;;;12.50;99.90;;;;;;7284856;19;20181;-78
2023/04/01 12:53:56;;;;;;;6.10;2.40;;;12.50;99.90;;;;;;7180609;19;2004628;-77
2023/04/01 12:56:31;;;;;;;5.30;2.30;;;12.60;99.90;;;;;;7289574;19;20228;-77
2023/04/01 12:59:03;;;;;;;7.37;2.30;;;12.60;99.90;;;;;;7268888;19;20195;-77
2023/04/01 13:01:48;;;;;;;4.13;2.10;;;12.60;99.90;;;;;;7291607;19;20245;-77
2023/04/01 13:04:34;;;;;;;6.87;2.50;;;12.60;99.90;;;;;;7290396;19;20202;-80
2023/04/01 13:07:30;;;;;;;8.10;2.87;;;12.30;99.90;;;;;;7186602;19;2004731;-80
2023/04/01 13:10:11;;;;;;;6.63;2.97;;;12.20;99.90;;;;;;7267867;19;20566;-80
2023/04/01 13:12:56;;;;;;;8.57;2.80;;;12.40;99.90;;;;;;7290811;19;20192;-80
2023/04/01 13:15:25;;;;;;;7.80;3.23;;;12.40;99.90;;;;;;7290026;19;20208;-81
2023/04/01 13:18:18;;;;;;;5.30;2.63;;;12.40;99.90;;;;;;7290174;19;20188;-81
2023/04/01 13:21:06;;;;;;;9.17;2.87;;;12.00;99.90;;;;;;7187707;19;2004619;-80
2023/04/01 13:23:45;;;;;;;5.60;2.30;;;12.00;99.90;;;;;;7187326;19;2004999;-81
2023/04/01 13:26:27;;;;;;;5.80;2.40;;;12.10;99.90;;;;;;7289832;19;20199;-81
2023/04/01 13:29:01;;;;;;;6.43;2.43;;;12.30;99.90;;;;;;7290119;19;20252;-80
2023/04/01 13:31:49;;;;;;;7.30;2.63;;;12.30;99.90;;;;;;7265801;19;20192;-80
2023/04/01 13:34:36;;;;;;;7.83;2.30;;;12.30;99.90;;;;;;7288583;19;20178;-81
2023/04/01 13:37:22;;;;;;;5.57;2.70;;;12.20;99.90;;;;;;7188162;19;2004554;-80
2023/04/01 13:40:17;;;;;;;4.77;2.30;;;12.20;99.90;;;;;;7290576;19;20203;-80